Terminal Aerodrome Forecast
Issued by NWS

Home | Current Version | Previous Version | Text Only | Print | Product List | Glossary On
Versions: 1 2 3 4 5 6 7 8 9 10 11 12 13 14 15 16 17 18 19 20 21
669
FTUS43 KDVN 072339
TAFCID
TAF
KCID 072339Z 0800/0824 27012KT P6SM BKN120
     FM080400 29017G28KT P6SM VCSH SCT025 OVC035
      TEMPO 0804/0808 5SM -SN BKN020 OVC030
     FM080800 31020G30KT 5SM -SHSN SCT009 OVC020
     FM081500 32022G32KT 3SM -SHSN OVC015=

USA.gov is the U.S. government's official web portal to all federal, state and local government web resources and services.